Aviation Digital Data Service (ADDS)

Output produced by METARs form (1025 UTC 02 October 2014)
found at http://www.aviationweather.gov/adds/metars/
 
KMIV 020954Z AUTO 35003KT 10SM OVC038 15/14 A3009 RMK AO2 SLP186 T01500139
KMIV 020546Z 0206/0306 VRB03KT P6SM FEW025 BKN050 
     TEMPO 0209/0212 5SM BR 
     FM021400 01009KT P6SM SCT025 BKN035 
     FM021800 04006KT P6SM BKN035